createdAt,value
2022-11-14T00:00:51.657Z,4.66
2022-11-14T00:03:38.063Z,4.72
2022-11-14T00:06:23.971Z,4.73
2022-11-14T00:09:09.884Z,4.71
2022-11-14T00:11:56.237Z,4.69
2022-11-14T00:14:42.425Z,4.64
2022-11-14T00:17:28.366Z,4.63
2022-11-14T00:20:14.825Z,4.61
2022-11-14T00:23:00.776Z,4.62
2022-11-14T00:25:47.461Z,4.60
2022-11-14T00:28:33.491Z,4.61
2022-11-14T00:31:19.559Z,4.63
2022-11-14T00:34:06.110Z,4.68
2022-11-14T00:36:51.779Z,4.69
2022-11-14T00:39:38.047Z,4.71
2022-11-14T00:42:23.947Z,4.68
2022-11-14T00:45:10.263Z,4.67
2022-11-14T00:47:56.320Z,4.57
2022-11-14T00:50:42.973Z,4.54
2022-11-14T00:53:28.995Z,4.56
2022-11-14T00:56:15.320Z,4.53
2022-11-14T00:59:01.618Z,4.50
2022-11-14T01:01:48.016Z,4.42
2022-11-14T01:04:34.219Z,4.40
2022-11-14T01:07:20.154Z,4.34
2022-11-14T01:10:07.402Z,4.33
2022-11-14T01:12:53.372Z,4.37
2022-11-14T01:15:44.356Z,4.31
2022-11-14T01:18:30.622Z,4.32
2022-11-14T01:21:17.156Z,4.31
2022-11-14T01:24:03.275Z,4.31
2022-11-14T01:26:49.407Z,4.26
2022-11-14T01:29:35.216Z,4.18
2022-11-14T01:32:21.306Z,4.04
2022-11-14T01:35:07.297Z,3.97
2022-11-14T01:37:53.016Z,3.99
2022-11-14T01:40:43.230Z,4.00
2022-11-14T01:43:39.437Z,4.05
2022-11-14T01:46:36.880Z,4.05
2022-11-14T01:49:33.205Z,4.07
2022-11-14T01:52:26.621Z,4.13
2022-11-14T01:55:12.589Z,4.11
2022-11-14T01:58:00.126Z,4.08
2022-11-14T02:00:46.549Z,4.07
2022-11-14T02:03:36.093Z,4.04
2022-11-14T02:06:25.760Z,3.95
2022-11-14T02:09:11.532Z,3.85
2022-11-14T02:12:00.946Z,3.85
2022-11-14T02:14:49.589Z,3.78
2022-11-14T02:17:35.679Z,3.63
2022-11-14T02:20:28.783Z,3.51
2022-11-14T02:23:16.002Z,3.51
2022-11-14T02:26:02.204Z,3.54
2022-11-14T02:28:50.133Z,3.56
2022-11-14T02:31:36.508Z,3.53
2022-11-14T02:34:22.535Z,3.50
2022-11-14T02:37:08.557Z,3.52
2022-11-14T02:39:54.363Z,3.54
2022-11-14T02:42:40.526Z,3.48
2022-11-14T02:45:27.066Z,3.43
2022-11-14T02:48:13.129Z,3.39
2022-11-14T02:50:58.842Z,3.40
2022-11-14T02:53:45.071Z,3.37
2022-11-14T02:56:31.351Z,3.33
2022-11-14T02:59:17.246Z,3.30
2022-11-14T03:02:03.455Z,3.33
2022-11-14T03:04:49.584Z,3.33
2022-11-14T03:07:35.953Z,3.25
2022-11-14T03:10:23.091Z,3.19
2022-11-14T03:13:08.973Z,3.21
2022-11-14T03:15:55.013Z,3.27
2022-11-14T03:18:41.496Z,3.29
2022-11-14T03:21:27.511Z,3.36
2022-11-14T03:24:13.362Z,3.39
2022-11-14T03:26:59.817Z,3.34
2022-11-14T03:29:45.787Z,3.27
2022-11-14T03:32:32.109Z,3.27
2022-11-14T03:35:18.531Z,3.35
2022-11-14T03:38:04.899Z,3.25
2022-11-14T03:40:52.019Z,3.19
2022-11-14T03:43:38.112Z,3.25
2022-11-14T03:46:23.989Z,3.26
2022-11-14T03:49:09.762Z,3.34
2022-11-14T03:51:56.018Z,3.31
2022-11-14T03:54:42.279Z,3.28
2022-11-14T03:57:28.392Z,3.29
2022-11-14T04:00:16.524Z,3.33
2022-11-14T04:03:02.827Z,3.31
2022-11-14T04:05:49.650Z,3.31
2022-11-14T04:08:35.668Z,3.26
2022-11-14T04:11:21.436Z,3.23
2022-11-14T04:14:07.727Z,3.23
2022-11-14T04:16:53.669Z,3.22
2022-11-14T04:19:39.976Z,3.18
2022-11-14T04:22:26.384Z,3.14
2022-11-14T04:25:12.087Z,3.09
2022-11-14T04:27:58.099Z,3.13
2022-11-14T04:30:45.300Z,3.20
2022-11-14T04:33:31.478Z,3.11
2022-11-14T04:36:17.500Z,3.05
2022-11-14T04:39:03.458Z,3.03
2022-11-14T04:41:49.460Z,2.98
2022-11-14T04:44:35.398Z,2.93
2022-11-14T04:47:21.116Z,2.87
2022-11-14T04:50:07.926Z,2.88
2022-11-14T04:52:53.985Z,2.86
2022-11-14T04:55:39.903Z,2.86
2022-11-14T04:58:26.837Z,2.84
2022-11-14T05:01:14.718Z,2.79
2022-11-14T05:04:00.781Z,2.78
2022-11-14T05:06:46.933Z,2.74
2022-11-14T05:09:33.046Z,2.70
2022-11-14T05:12:19.377Z,2.68
2022-11-14T05:15:06.631Z,2.66
2022-11-14T05:17:53.780Z,2.61
2022-11-14T05:20:40.118Z,2.59
2022-11-14T05:23:27.031Z,2.53
2022-11-14T05:26:16.338Z,2.43
2022-11-14T05:29:02.610Z,2.55
2022-11-14T05:31:48.262Z,2.61
2022-11-14T05:34:34.434Z,2.71
2022-11-14T05:37:20.755Z,2.81
2022-11-14T05:40:07.235Z,3.03
2022-11-14T05:42:55.879Z,3.25
2022-11-14T05:45:41.773Z,3.36
2022-11-14T05:48:28.557Z,3.39
2022-11-14T05:51:15.124Z,3.26
2022-11-14T05:54:01.102Z,3.15
2022-11-14T05:56:47.115Z,3.03
2022-11-14T05:59:33.553Z,3.00
2022-11-14T06:02:19.837Z,3.03
2022-11-14T06:05:06.904Z,3.05
2022-11-14T06:07:57.608Z,3.10
2022-11-14T06:10:43.763Z,3.94
2022-11-14T06:13:30.075Z,4.50
2022-11-14T06:16:18.440Z,4.55
2022-11-14T06:19:05.496Z,4.91
2022-11-14T06:21:51.450Z,4.82
2022-11-14T06:24:37.793Z,4.84
2022-11-14T06:27:24.031Z,4.82
2022-11-14T06:30:10.679Z,4.96
2022-11-14T06:32:59.258Z,4.98
2022-11-14T06:35:45.399Z,5.08
2022-11-14T06:38:33.067Z,5.28
2022-11-14T06:41:21.721Z,5.30
2022-11-14T06:44:08.868Z,5.24
2022-11-14T06:46:54.858Z,5.32
2022-11-14T06:49:41.183Z,5.45
2022-11-14T06:52:27.475Z,5.51
2022-11-14T06:55:13.458Z,5.62
2022-11-14T06:57:59.060Z,5.68
2022-11-14T07:00:45.289Z,6.01
2022-11-14T07:03:32.249Z,6.58
2022-11-14T07:06:21.692Z,6.71
2022-11-14T07:09:07.852Z,6.78
2022-11-14T07:11:53.926Z,6.87
2022-11-14T07:14:40.233Z,6.80
2022-11-14T07:17:30.997Z,6.79
2022-11-14T07:20:18.668Z,6.73
2022-11-14T07:23:04.779Z,7.10
2022-11-14T07:25:50.766Z,7.04
2022-11-14T07:28:38.226Z,6.85
2022-11-14T07:31:24.550Z,6.63
2022-11-14T07:34:11.368Z,6.50
2022-11-14T07:36:57.311Z,6.46
2022-11-14T07:39:43.584Z,6.88
2022-11-14T07:42:31.554Z,7.29
2022-11-14T07:45:17.906Z,7.46
2022-11-14T07:48:04.177Z,7.63
2022-11-14T07:50:50.539Z,8.10
2022-11-14T07:53:36.418Z,8.40
2022-11-14T07:56:22.436Z,8.30
2022-11-14T07:59:08.490Z,8.54
2022-11-14T08:01:54.451Z,9.05
2022-11-14T08:04:42.016Z,9.59
2022-11-14T08:07:28.117Z,10.39
2022-11-14T08:10:14.368Z,10.90
2022-11-14T08:13:30.539Z,11.50
2022-11-14T08:16:14.250Z,11.87
2022-11-14T08:19:00.760Z,12.03
2022-11-14T08:21:46.774Z,12.08
2022-11-14T08:24:32.981Z,12.22
2022-11-14T08:27:19.179Z,12.64
2022-11-14T08:30:05.687Z,13.51
2022-11-14T08:32:51.794Z,14.28
2022-11-14T08:35:37.893Z,15.19
2022-11-14T08:38:24.037Z,15.72
2022-11-14T08:41:10.409Z,16.31
2022-11-14T08:43:56.773Z,16.90
2022-11-14T08:46:42.929Z,17.37
2022-11-14T08:49:28.904Z,17.83
2022-11-14T08:52:16.796Z,18.15
2022-11-14T08:55:03.487Z,18.67
2022-11-14T08:57:50.072Z,18.81
2022-11-14T09:00:36.428Z,19.11
2022-11-14T09:03:22.581Z,19.42
2022-11-14T09:06:08.767Z,19.79
2022-11-14T09:08:55.284Z,20.05
2022-11-14T09:11:41.357Z,20.33
2022-11-14T09:14:27.312Z,20.51
2022-11-14T09:17:13.279Z,20.69
2022-11-14T09:19:58.887Z,20.77
2022-11-14T09:22:45.368Z,21.17
2022-11-14T09:25:31.628Z,21.23
2022-11-14T09:28:17.875Z,21.17
2022-11-14T09:31:10.093Z,21.46
2022-11-14T09:33:56.368Z,21.67
2022-11-14T09:36:42.717Z,21.85
2022-11-14T09:39:29.049Z,22.08
2022-11-14T09:42:24.323Z,22.41
2022-11-14T09:45:16.345Z,22.53
2022-11-14T09:48:10.694Z,22.73
2022-11-14T09:51:06.975Z,23.06
2022-11-14T09:54:20.616Z,22.88
2022-11-14T09:57:15.452Z,23.18
2022-11-14T10:00:01.476Z,23.17
2022-11-14T10:02:48.408Z,23.51
2022-11-14T10:05:45.852Z,23.68
2022-11-14T10:09:02.661Z,23.93
2022-11-14T10:12:16.258Z,24.08
2022-11-14T10:15:14.182Z,23.63
2022-11-14T10:18:33.691Z,23.79
2022-11-14T10:21:31.781Z,22.30
2022-11-14T10:24:49.041Z,22.46
2022-11-14T10:28:08.988Z,22.81
2022-11-14T10:31:07.545Z,21.90
2022-11-14T10:34:09.249Z,19.36
2022-11-14T10:37:14.608Z,16.76
2022-11-14T10:40:25.905Z,15.34
2022-11-14T10:43:22.381Z,13.53
2022-11-14T10:46:24.651Z,12.25
2022-11-14T10:49:22.428Z,11.09
2022-11-14T10:52:16.707Z,10.23
2022-11-14T10:55:14.795Z,9.48
2022-11-14T10:58:01.071Z,8.81
2022-11-14T11:00:47.114Z,8.25
2022-11-14T11:03:44.142Z,7.91
2022-11-14T11:06:30.366Z,7.51
2022-11-14T11:09:45.530Z,7.40
2022-11-14T11:12:37.692Z,7.23
2022-11-14T11:15:26.580Z,6.86
2022-11-14T11:18:36.308Z,6.86
2022-11-14T11:21:23.551Z,6.54
2022-11-14T11:24:09.752Z,6.48
2022-11-14T11:27:35.625Z,6.33
2022-11-14T11:30:26.167Z,5.92
2022-11-14T11:33:21.340Z,5.78
2022-11-14T11:36:20.423Z,5.69
2022-11-14T11:39:18.001Z,5.39
2022-11-14T11:42:10.177Z,5.22
2022-11-14T11:45:00.505Z,5.13
2022-11-14T11:47:56.224Z,5.07
2022-11-14T11:50:43.228Z,4.96
2022-11-14T11:53:34.377Z,4.99
2022-11-14T11:56:26.551Z,4.93
2022-11-14T11:59:33.679Z,4.86
2022-11-14T12:02:27.789Z,4.68
2022-11-14T12:05:22.803Z,4.58
2022-11-14T12:08:53.324Z,4.62
2022-11-14T12:11:45.861Z,4.47
2022-11-14T12:15:00.682Z,4.50
2022-11-14T12:18:07.978Z,4.35
2022-11-14T12:21:20.837Z,4.36
2022-11-14T12:24:37.578Z,4.32
2022-11-14T12:27:43.226Z,4.23
2022-11-14T12:30:31.767Z,4.18
2022-11-14T12:33:47.533Z,4.26
2022-11-14T12:36:35.241Z,4.04
2022-11-14T12:39:31.159Z,3.96
2022-11-14T12:42:21.686Z,3.95
2022-11-14T12:45:41.291Z,3.94
2022-11-14T12:48:27.060Z,3.84
2022-11-14T12:51:27.841Z,3.91
2022-11-14T12:54:44.847Z,3.89
2022-11-14T12:57:49.453Z,3.85
2022-11-14T13:01:26.955Z,3.82
2022-11-14T13:04:15.595Z,3.75
2022-11-14T13:07:20.096Z,3.72
2022-11-14T13:10:29.890Z,3.77
2022-11-14T13:13:35.570Z,3.63
2022-11-14T13:16:43.719Z,3.56
2022-11-14T13:19:48.872Z,3.50
2022-11-14T13:22:45.382Z,3.50
2022-11-14T13:25:31.552Z,3.39
2022-11-14T13:28:36.478Z,3.44
2022-11-14T13:31:25.653Z,3.29
2022-11-14T13:34:51.312Z,3.35
2022-11-14T13:37:40.382Z,3.22
2022-11-14T13:40:28.959Z,3.19
2022-11-14T13:43:33.528Z,3.16
2022-11-14T13:46:38.747Z,3.05
2022-11-14T13:49:54.145Z,3.10
2022-11-14T13:52:43.587Z,2.96
2022-11-14T13:55:29.642Z,2.90
2022-11-14T13:58:30.502Z,2.91
2022-11-14T14:01:29.072Z,2.90
2022-11-14T14:04:34.308Z,2.87
2022-11-14T14:07:41.318Z,2.90
2022-11-14T14:10:48.559Z,2.78
2022-11-14T14:13:55.745Z,2.85
2022-11-14T14:16:50.853Z,2.84
2022-11-14T14:19:51.744Z,2.82
2022-11-14T14:22:48.370Z,2.79
2022-11-14T14:25:55.435Z,2.77
2022-11-14T14:29:18.307Z,2.81
2022-11-14T14:32:22.015Z,2.76
2022-11-14T14:35:24.713Z,2.77
2022-11-14T14:38:23.097Z,2.75
2022-11-14T14:41:12.229Z,2.71
2022-11-14T14:44:00.230Z,2.66
2022-11-14T14:46:46.708Z,2.61
2022-11-14T14:49:37.759Z,2.60
2022-11-14T14:52:41.912Z,2.63
2022-11-14T14:55:32.762Z,2.67
2022-11-14T14:58:26.414Z,2.87
2022-11-14T15:01:16.780Z,2.95
2022-11-14T15:04:08.447Z,3.05
2022-11-14T15:06:58.538Z,3.12
2022-11-14T15:09:56.651Z,3.24
2022-11-14T15:12:43.552Z,3.20
2022-11-14T15:15:30.632Z,3.24
2022-11-14T15:18:37.346Z,3.39
2022-11-14T15:21:30.800Z,3.35
2022-11-14T15:24:19.909Z,3.33
2022-11-14T15:27:13.101Z,3.39
2022-11-14T15:30:03.312Z,3.42
2022-11-14T15:32:52.049Z,3.44
2022-11-14T15:35:39.642Z,3.46
2022-11-14T15:41:33.591Z,3.54
2022-11-14T15:44:34.118Z,3.53
2022-11-14T15:47:36.869Z,3.52
2022-11-14T15:50:35.353Z,3.59
2022-11-14T15:53:25.359Z,3.65
2022-11-14T15:56:13.122Z,3.69
2022-11-14T15:58:59.343Z,3.63
2022-11-14T16:01:48.945Z,3.58
2022-11-14T16:04:36.749Z,3.53
2022-11-14T16:07:23.243Z,3.53
2022-11-14T16:10:21.168Z,3.56
2022-11-14T16:13:07.563Z,3.56
2022-11-14T16:15:53.521Z,3.52
2022-11-14T16:18:39.814Z,3.56
2022-11-14T16:21:26.455Z,3.54
2022-11-14T16:24:16.951Z,3.55
2022-11-14T16:27:04.192Z,3.51
2022-11-14T16:29:50.300Z,3.48
2022-11-14T16:32:36.266Z,3.48
2022-11-14T16:35:25.663Z,3.51
2022-11-14T16:38:14.866Z,3.56
2022-11-14T16:41:01.011Z,3.49
2022-11-14T16:43:47.330Z,3.50
2022-11-14T16:46:33.229Z,3.48
2022-11-14T16:49:20.093Z,3.47
2022-11-14T16:52:08.762Z,3.52
2022-11-14T16:54:54.874Z,3.52
2022-11-14T16:57:41.139Z,3.45
2022-11-14T17:00:27.776Z,3.44
2022-11-14T17:03:14.530Z,3.43
2022-11-14T17:06:00.885Z,3.49
2022-11-14T17:08:46.943Z,3.50
2022-11-14T17:11:33.468Z,3.52
2022-11-14T17:14:19.515Z,3.50
2022-11-14T17:17:05.503Z,3.52
2022-11-14T17:19:51.306Z,3.57
2022-11-14T17:22:37.445Z,3.53
2022-11-14T17:25:23.953Z,3.56
2022-11-14T17:28:09.824Z,3.59
2022-11-14T17:30:56.063Z,3.52
2022-11-14T17:33:42.156Z,3.46
2022-11-14T17:36:29.956Z,3.44
2022-11-14T17:39:15.906Z,3.52
2022-11-14T17:42:01.939Z,3.49
2022-11-14T17:44:48.204Z,3.44
2022-11-14T17:47:34.518Z,3.43
2022-11-14T17:50:20.931Z,3.44
2022-11-14T17:53:07.310Z,3.46
2022-11-14T17:55:57.487Z,3.54
2022-11-14T17:58:44.174Z,3.54
2022-11-14T18:01:31.429Z,3.52
2022-11-14T18:04:17.725Z,3.42
2022-11-14T18:07:03.899Z,3.37
2022-11-14T18:09:50.035Z,3.39
2022-11-14T18:12:36.337Z,3.40
2022-11-14T18:15:27.707Z,3.39
2022-11-14T18:18:14.112Z,3.39
2022-11-14T18:21:17.087Z,3.35
2022-11-14T18:24:03.398Z,3.27
2022-11-14T18:26:49.615Z,3.28
2022-11-14T18:29:36.004Z,3.29
2022-11-14T18:32:22.110Z,3.33
2022-11-14T18:35:09.457Z,3.35
2022-11-14T18:37:57.925Z,3.38
2022-11-14T18:40:44.575Z,3.35
2022-11-14T18:43:32.773Z,3.46
2022-11-14T18:46:24.204Z,3.40
2022-11-14T18:49:11.318Z,3.46
2022-11-14T18:51:57.381Z,3.40
2022-11-14T18:54:43.261Z,3.40
2022-11-14T18:57:31.294Z,3.42
2022-11-14T19:00:17.867Z,3.36
2022-11-14T19:03:06.374Z,3.35
2022-11-14T19:05:52.507Z,3.37
2022-11-14T19:08:39.706Z,3.34
2022-11-14T19:11:44.392Z,3.37
2022-11-14T19:14:30.044Z,3.35
2022-11-14T19:17:20.940Z,3.36
2022-11-14T19:20:12.968Z,3.34
2022-11-14T19:23:00.434Z,3.32
2022-11-14T19:25:46.791Z,3.31
2022-11-14T19:28:32.307Z,3.31
2022-11-14T19:31:19.603Z,3.30
2022-11-14T19:34:05.853Z,3.34
2022-11-14T19:37:00.817Z,3.32
2022-11-14T19:39:47.672Z,3.30
2022-11-14T19:42:33.650Z,3.25
2022-11-14T19:45:19.900Z,3.18
2022-11-14T19:48:06.296Z,3.15
2022-11-14T19:51:10.082Z,3.16
2022-11-14T19:53:57.686Z,3.13
2022-11-14T19:56:43.787Z,3.11
2022-11-14T19:59:29.712Z,3.13
2022-11-14T20:02:15.821Z,3.06
2022-11-14T20:05:01.548Z,3.05
2022-11-14T20:07:47.527Z,3.00
2022-11-14T20:10:47.663Z,2.96
2022-11-14T20:13:37.130Z,3.01
2022-11-14T20:16:26.687Z,3.03
2022-11-14T20:19:13.828Z,3.06
2022-11-14T20:22:01.061Z,3.11
2022-11-14T20:24:46.833Z,3.06
2022-11-14T20:27:33.167Z,3.04
2022-11-14T20:30:19.008Z,3.10
2022-11-14T20:33:05.023Z,3.08
2022-11-14T20:35:51.131Z,3.02
2022-11-14T20:38:37.143Z,3.00
2022-11-14T20:41:26.142Z,3.03
2022-11-14T20:44:11.896Z,2.99
2022-11-14T20:46:57.632Z,2.98
2022-11-14T20:49:44.384Z,2.94
2022-11-14T20:52:48.251Z,2.91
2022-11-14T20:55:34.535Z,2.91
2022-11-14T20:58:21.190Z,2.90
2022-11-14T21:01:07.950Z,2.92
2022-11-14T21:03:54.236Z,2.92
2022-11-14T21:06:40.250Z,2.88
2022-11-14T21:09:26.489Z,2.91
2022-11-14T21:12:12.711Z,2.92
2022-11-14T21:14:58.989Z,2.87
2022-11-14T21:17:45.282Z,2.87
2022-11-14T21:20:31.426Z,2.93
2022-11-14T21:23:17.762Z,2.89
2022-11-14T21:26:15.383Z,3.01
2022-11-14T21:29:05.308Z,2.95
2022-11-14T21:31:51.252Z,3.01
2022-11-14T21:34:37.410Z,2.96
2022-11-14T21:37:23.154Z,3.07
2022-11-14T21:40:10.006Z,3.07
2022-11-14T21:42:55.808Z,3.03
2022-11-14T21:45:41.660Z,3.08
2022-11-14T21:48:31.787Z,3.05
2022-11-14T21:51:24.702Z,3.05
2022-11-14T21:54:10.429Z,3.10
2022-11-14T21:56:58.943Z,3.06
2022-11-14T21:59:45.020Z,3.06
2022-11-14T22:02:50.966Z,3.05
2022-11-14T22:05:37.097Z,3.08
2022-11-14T22:08:23.654Z,3.07
2022-11-14T22:11:09.732Z,3.11
2022-11-14T22:13:55.599Z,3.10
2022-11-14T22:16:44.323Z,3.03
2022-11-14T22:19:30.723Z,3.04
2022-11-14T22:22:16.893Z,3.12
2022-11-14T22:25:02.961Z,3.15
2022-11-14T22:27:48.912Z,3.11
2022-11-14T22:30:34.975Z,3.13
2022-11-14T22:33:21.279Z,3.17
2022-11-14T22:36:12.808Z,3.12
2022-11-14T22:38:58.839Z,3.06
2022-11-14T22:41:47.076Z,3.05
2022-11-14T22:44:33.073Z,3.03
2022-11-14T22:47:18.840Z,3.00
2022-11-14T22:50:05.604Z,2.95
2022-11-14T22:52:51.679Z,2.94
2022-11-14T22:55:37.364Z,2.90
2022-11-14T22:58:24.006Z,2.98
2022-11-14T23:01:25.196Z,3.00
2022-11-14T23:04:11.332Z,2.97
2022-11-14T23:06:57.536Z,2.95
2022-11-14T23:09:43.822Z,2.88
2022-11-14T23:12:31.666Z,3.18
2022-11-14T23:15:17.873Z,3.06
2022-11-14T23:18:04.986Z,3.01
2022-11-14T23:20:51.051Z,3.05
2022-11-14T23:23:37.299Z,2.98
2022-11-14T23:26:23.892Z,3.01
2022-11-14T23:29:14.141Z,2.95
2022-11-14T23:32:00.351Z,2.94
2022-11-14T23:34:45.971Z,2.97
2022-11-14T23:37:31.751Z,2.96
2022-11-14T23:40:17.620Z,2.93
2022-11-14T23:43:03.973Z,2.87
2022-11-14T23:45:50.127Z,2.88
2022-11-14T23:48:35.851Z,2.86
2022-11-14T23:51:21.860Z,2.85
2022-11-14T23:54:08.042Z,2.91
2022-11-14T23:56:54.259Z,2.87
2022-11-14T23:59:40.344Z,2.94
